Time;durP1;ratioP1;P1;durP2;ratioP2;P2;SDS_P1;SDS_P2;PMS_P1;PMS_P2;Temp;Humidity;BMP_temperature;BMP_pressure;BME280_temperature;BME280_humidity;BME280_pressure;Samples;Min_cycle;Max_cycle;Signal;HPM_P1;HPM_P2
2024/03/11 00:00:15;;;;;;;53.45;25.92;;;;;;;;;;5028733;28;20024;-71
2024/03/11 00:02:45;;;;;;;56.13;25.73;;;;;;;;;;5027938;28;20033;-70
2024/03/11 00:05:11;;;;;;;58.87;26.70;;;;;;;;;;5027686;28;20021;-71
2024/03/11 00:07:37;;;;;;;51.50;25.23;;;;;;;;;;5031322;28;20034;-71
2024/03/11 00:10:04;;;;;;;54.35;26.20;;;;;;;;;;5040129;28;20032;-71
2024/03/11 00:12:31;;;;;;;55.33;26.25;;;;;;;;;;5033390;28;20039;-71
2024/03/11 00:14:57;;;;;;;53.25;26.50;;;;;;;;;;5035923;28;20040;-71
2024/03/11 00:17:22;;;;;;;61.53;27.13;;;;;;;;;;5038296;28;20427;-71
2024/03/11 00:19:47;;;;;;;57.57;26.87;;;;;;;;;;5026052;28;20076;-71
2024/03/11 00:22:13;;;;;;;58.83;27.13;;;;;;;;;;5035727;28;20268;-71
2024/03/11 00:24:38;;;;;;;58.17;27.17;;;;;;;;;;5033718;28;20836;-71
2024/03/11 00:27:07;;;;;;;54.13;25.40;;;;;;;;;;5024837;28;20028;-71
2024/03/11 00:29:34;;;;;;;59.97;27.73;;;;;;;;;;5029606;28;20032;-71
2024/03/11 00:32:02;;;;;;;56.85;26.38;;;;;;;;;;5028095;28;20017;-71
2024/03/11 00:34:27;;;;;;;58.10;28.55;;;;;;;;;;5022450;28;20025;-71
2024/03/11 00:36:53;;;;;;;54.42;26.38;;;;;;;;;;5035617;28;20028;-71
2024/03/11 00:39:18;;;;;;;57.45;26.85;;;;;;;;;;5031411;28;20017;-70
2024/03/11 00:41:43;;;;;;;60.50;28.83;;;;;;;;;;5034143;28;20033;-70
2024/03/11 00:44:09;;;;;;;66.60;27.80;;;;;;;;;;5028620;28;20272;-70
2024/03/11 00:46:35;;;;;;;60.35;29.58;;;;;;;;;;5028776;28;20112;-70
2024/03/11 00:49:00;;;;;;;57.13;27.17;;;;;;;;;;5030050;28;20010;-70
2024/03/11 00:51:25;;;;;;;54.30;25.47;;;;;;;;;;5026343;28;20078;-70
2024/03/11 00:53:51;;;;;;;57.97;26.02;;;;;;;;;;5029313;28;20344;-70
2024/03/11 00:56:16;;;;;;;64.43;28.98;;;;;;;;;;5029960;28;20520;-70
2024/03/11 00:58:42;;;;;;;56.38;26.30;;;;;;;;;;5029686;28;20438;-70
2024/03/11 01:01:07;;;;;;;62.10;28.67;;;;;;;;;;5028427;28;20461;-70
2024/03/11 01:03:32;;;;;;;64.13;29.50;;;;;;;;;;5028725;28;20029;-70
2024/03/11 01:05:58;;;;;;;58.60;27.40;;;;;;;;;;5027493;28;20262;-70
2024/03/11 01:08:23;;;;;;;60.00;28.65;;;;;;;;;;5025072;28;20384;-70
2024/03/11 01:10:49;;;;;;;60.72;27.52;;;;;;;;;;5024760;28;20018;-70
2024/03/11 01:13:14;;;;;;;67.07;29.73;;;;;;;;;;5031879;28;20053;-70
2024/03/11 01:15:39;;;;;;;65.35;29.50;;;;;;;;;;5026283;28;20025;-70
2024/03/11 01:18:05;;;;;;;68.78;30.27;;;;;;;;;;5029877;28;20021;-70
2024/03/11 01:20:30;;;;;;;64.18;29.67;;;;;;;;;;5040021;28;20020;-70
2024/03/11 01:22:55;;;;;;;66.00;30.08;;;;;;;;;;5033904;28;20017;-70
2024/03/11 01:25:21;;;;;;;72.18;31.00;;;;;;;;;;5025834;28;20105;-70
2024/03/11 01:27:46;;;;;;;59.70;28.20;;;;;;;;;;5027750;28;20021;-70
2024/03/11 01:30:12;;;;;;;60.28;27.92;;;;;;;;;;5030130;28;21322;-70
2024/03/11 01:32:39;;;;;;;64.03;29.20;;;;;;;;;;5029672;28;20489;-70
2024/03/11 01:35:04;;;;;;;72.35;32.08;;;;;;;;;;5029987;28;20025;-70
2024/03/11 01:37:29;;;;;;;68.78;30.80;;;;;;;;;;5028216;28;20100;-70
2024/03/11 01:39:55;;;;;;;65.25;30.10;;;;;;;;;;5030791;28;20025;-70
2024/03/11 01:42:20;;;;;;;59.08;27.90;;;;;;;;;;5031931;28;20040;-70
2024/03/11 01:44:49;;;;;;;66.73;27.70;;;;;;;;;;5032813;28;20029;-68
2024/03/11 01:47:15;;;;;;;63.20;28.88;;;;;;;;;;5028230;28;20287;-68
2024/03/11 01:49:41;;;;;;;58.67;28.65;;;;;;;;;;5029583;28;20010;-68
2024/03/11 01:52:07;;;;;;;63.95;28.85;;;;;;;;;;5031056;28;20529;-67
2024/03/11 01:54:36;;;;;;;70.60;29.88;;;;;;;;;;5026685;28;20037;-68
2024/03/11 01:57:01;;;;;;;68.47;30.60;;;;;;;;;;5024937;28;20415;-67
2024/03/11 01:59:27;;;;;;;73.90;31.60;;;;;;;;;;5025478;28;20040;-67
2024/03/11 02:01:52;;;;;;;70.80;31.67;;;;;;;;;;5026712;28;20037;-67
2024/03/11 02:04:20;;;;;;;71.10;31.85;;;;;;;;;;5028576;28;20021;-67
2024/03/11 02:06:45;;;;;;;69.72;32.05;;;;;;;;;;5028415;28;20132;-67
2024/03/11 02:09:14;;;;;;;72.80;30.58;;;;;;;;;;5030545;28;20465;-67
2024/03/11 02:11:39;;;;;;;71.15;31.00;;;;;;;;;;5037118;28;20013;-67
2024/03/11 02:14:05;;;;;;;71.40;31.93;;;;;;;;;;5025042;28;20479;-67
2024/03/11 02:16:31;;;;;;;80.18;32.45;;;;;;;;;;5025294;28;20252;-69
2024/03/11 02:18:57;;;;;;;71.97;31.13;;;;;;;;;;5028917;28;20118;-70
2024/03/11 02:21:22;;;;;;;71.70;32.23;;;;;;;;;;5025653;28;20485;-70
2024/03/11 02:23:48;;;;;;;76.78;30.40;;;;;;;;;;5025869;28;20318;-70
2024/03/11 02:26:13;;;;;;;72.85;32.55;;;;;;;;;;5031320;28;20686;-70
2024/03/11 02:28:38;;;;;;;79.88;32.35;;;;;;;;;;5029500;28;20024;-70
2024/03/11 02:31:03;;;;;;;78.78;30.95;;;;;;;;;;5030394;28;20032;-70
2024/03/11 02:33:30;;;;;;;81.17;34.00;;;;;;;;;;5023047;28;20018;-70
2024/03/11 02:35:55;;;;;;;79.28;34.20;;;;;;;;;;5022181;28;20307;-70
2024/03/11 02:38:21;;;;;;;75.37;33.77;;;;;;;;;;5034289;28;20029;-70
2024/03/11 02:40:47;;;;;;;84.32;34.25;;;;;;;;;;5032622;28;20362;-70
2024/03/11 02:43:12;;;;;;;76.22;33.17;;;;;;;;;;5031410;28;20603;-70
2024/03/11 02:45:39;;;;;;;75.50;34.70;;;;;;;;;;5029298;28;20439;-70
2024/03/11 02:48:05;;;;;;;85.57;35.92;;;;;;;;;;5033312;28;20048;-70
2024/03/11 02:50:30;;;;;;;88.47;36.05;;;;;;;;;;5038242;28;20048;-70
2024/03/11 02:52:56;;;;;;;93.43;40.25;;;;;;;;;;5036247;28;20021;-70
2024/03/11 02:55:21;;;;;;;90.53;37.65;;;;;;;;;;5035547;28;20507;-70
2024/03/11 02:57:48;;;;;;;97.93;42.10;;;;;;;;;;5028704;28;20029;-70
2024/03/11 03:00:14;;;;;;;96.55;42.17;;;;;;;;;;5032191;28;20369;-70
2024/03/11 03:02:40;;;;;;;115.65;51.83;;;;;;;;;;5035281;28;20024;-70
2024/03/11 03:05:06;;;;;;;114.05;48.75;;;;;;;;;;5027769;28;20037;-70
2024/03/11 03:07:31;;;;;;;116.90;47.97;;;;;;;;;;5032669;28;20009;-70
2024/03/11 03:09:56;;;;;;;115.93;47.17;;;;;;;;;;5039083;28;20187;-70
2024/03/11 03:12:22;;;;;;;113.82;50.45;;;;;;;;;;5032626;28;20025;-70
2024/03/11 03:14:47;;;;;;;104.00;44.55;;;;;;;;;;5040376;28;20021;-70
2024/03/11 03:17:12;;;;;;;108.68;44.83;;;;;;;;;;5030573;28;20504;-70
2024/03/11 03:19:38;;;;;;;111.47;46.03;;;;;;;;;;5035029;28;20056;-70
2024/03/11 03:22:03;;;;;;;108.13;46.00;;;;;;;;;;5035844;28;20263;-70
2024/03/11 03:24:28;;;;;;;116.10;51.60;;;;;;;;;;5029979;28;20296;-70
2024/03/11 03:26:54;;;;;;;108.30;48.33;;;;;;;;;;5030017;28;20017;-70
2024/03/11 03:29:19;;;;;;;114.47;52.80;;;;;;;;;;5034104;28;20408;-70
2024/03/11 03:31:45;;;;;;;103.50;45.70;;;;;;;;;;5039525;28;20123;-70
2024/03/11 03:34:10;;;;;;;109.60;48.10;;;;;;;;;;5031178;28;20270;-70
2024/03/11 03:36:36;;;;;;;114.35;51.85;;;;;;;;;;5034664;28;20446;-70
2024/03/11 03:39:03;;;;;;;108.32;46.00;;;;;;;;;;5034314;28;20025;-70
2024/03/11 03:41:28;;;;;;;104.30;44.63;;;;;;;;;;5035607;28;20034;-70
2024/03/11 03:43:54;;;;;;;108.20;46.33;;;;;;;;;;5035667;28;20055;-70
2024/03/11 03:46:20;;;;;;;112.68;51.42;;;;;;;;;;5031025;28;20352;-70
2024/03/11 03:48:48;;;;;;;106.78;46.67;;;;;;;;;;5032591;28;20552;-70
2024/03/11 03:51:13;;;;;;;109.82;48.72;;;;;;;;;;5031568;28;20075;-70
2024/03/11 03:53:39;;;;;;;117.83;47.70;;;;;;;;;;5033071;28;20013;-70
2024/03/11 03:56:05;;;;;;;110.10;48.47;;;;;;;;;;5023495;28;20320;-70
2024/03/11 03:58:30;;;;;;;110.65;48.13;;;;;;;;;;5032742;28;20461;-70
2024/03/11 04:00:56;;;;;;;121.88;47.88;;;;;;;;;;5022615;28;20064;-70
2024/03/11 04:03:21;;;;;;;104.97;46.58;;;;;;;;;;5022785;28;20092;-70
2024/03/11 04:05:49;;;;;;;119.80;48.10;;;;;;;;;;5029119;28;20101;-70
2024/03/11 04:08:17;;;;;;;109.22;46.92;;;;;;;;;;5027527;28;20822;-70
2024/03/11 04:10:43;;;;;;;100.57;43.60;;;;;;;;;;5029078;28;20084;-70
2024/03/11 04:13:09;;;;;;;90.68;41.45;;;;;;;;;;5025643;28;20010;-70
2024/03/11 04:15:36;;;;;;;94.85;42.72;;;;;;;;;;5035370;28;20023;-70
2024/03/11 04:18:05;;;;;;;93.25;43.80;;;;;;;;;;5025123;28;20124;-70
2024/03/11 04:20:31;;;;;;;101.85;43.58;;;;;;;;;;5032422;28;20030;-70
2024/03/11 04:22:58;;;;;;;97.43;43.28;;;;;;;;;;5029510;28;20029;-70
2024/03/11 04:25:26;;;;;;;95.10;40.53;;;;;;;;;;5031551;28;20029;-70
2024/03/11 04:27:52;;;;;;;101.40;43.83;;;;;;;;;;5032561;28;20043;-70
2024/03/11 04:30:21;;;;;;;94.20;43.25;;;;;;;;;;5024784;28;20014;-70
2024/03/11 04:32:52;;;;;;;91.93;42.10;;;;;;;;;;5033625;28;20043;-70
2024/03/11 04:35:24;;;;;;;97.28;40.97;;;;;;;;;;5028823;28;20021;-70
2024/03/11 04:37:50;;;;;;;93.47;43.97;;;;;;;;;;5032063;28;20072;-70
2024/03/11 04:40:15;;;;;;;96.85;43.53;;;;;;;;;;5022732;28;20396;-70
2024/03/11 04:42:40;;;;;;;98.00;43.17;;;;;;;;;;5031125;28;20052;-70
2024/03/11 04:45:06;;;;;;;90.13;42.73;;;;;;;;;;5030044;28;20021;-70
2024/03/11 04:47:31;;;;;;;94.80;42.15;;;;;;;;;;5035706;28;20264;-70
2024/03/11 04:49:57;;;;;;;97.87;42.37;;;;;;;;;;5032712;28;20093;-70
2024/03/11 04:52:22;;;;;;;93.10;41.90;;;;;;;;;;5033197;28;20295;-70
2024/03/11 04:54:47;;;;;;;91.93;41.30;;;;;;;;;;5028620;28;20619;-70
2024/03/11 04:57:13;;;;;;;96.43;39.95;;;;;;;;;;5032039;28;20420;-70
2024/03/11 04:59:40;;;;;;;96.22;41.55;;;;;;;;;;5028294;28;20029;-69
2024/03/11 05:02:05;;;;;;;91.97;37.53;;;;;;;;;;5028264;28;20415;-69
2024/03/11 05:04:30;;;;;;;93.07;41.28;;;;;;;;;;5028655;28;20199;-70
2024/03/11 05:06:55;;;;;;;92.45;41.15;;;;;;;;;;5025701;28;20542;-70
2024/03/11 05:09:20;;;;;;;93.97;41.22;;;;;;;;;;5030158;28;20528;-70
2024/03/11 05:11:46;;;;;;;95.47;42.60;;;;;;;;;;5028066;28;20034;-70
2024/03/11 05:14:13;;;;;;;97.50;41.63;;;;;;;;;;5024744;28;20029;-70
2024/03/11 05:16:38;;;;;;;99.53;41.65;;;;;;;;;;5033455;28;20044;-70
2024/03/11 05:19:03;;;;;;;95.73;42.23;;;;;;;;;;5032257;28;20674;-70
2024/03/11 05:21:28;;;;;;;102.60;40.75;;;;;;;;;;5027871;28;20273;-70
2024/03/11 05:23:53;;;;;;;94.43;41.83;;;;;;;;;;5026594;28;20113;-70
2024/03/11 05:26:19;;;;;;;89.53;40.33;;;;;;;;;;5024128;28;20057;-70
2024/03/11 05:28:44;;;;;;;91.97;41.13;;;;;;;;;;5029452;28;20259;-70
2024/03/11 05:31:10;;;;;;;94.80;39.67;;;;;;;;;;5025806;28;20393;-70
2024/03/11 05:33:35;;;;;;;89.68;39.97;;;;;;;;;;5026434;28;20488;-70
2024/03/11 05:36:00;;;;;;;92.40;40.53;;;;;;;;;;5027069;28;20124;-70
2024/03/11 05:38:25;;;;;;;91.35;38.15;;;;;;;;;;5025770;28;20097;-70
2024/03/11 05:40:51;;;;;;;97.32;40.80;;;;;;;;;;5025296;28;20022;-70
2024/03/11 05:43:17;;;;;;;94.47;41.00;;;;;;;;;;5027174;28;20021;-70
2024/03/11 05:45:42;;;;;;;91.72;39.25;;;;;;;;;;5029124;28;20032;-70
2024/03/11 05:48:09;;;;;;;97.05;40.33;;;;;;;;;;5031312;28;20021;-70
2024/03/11 05:50:36;;;;;;;90.22;39.28;;;;;;;;;;5028980;28;20132;-70
2024/03/11 05:53:01;;;;;;;96.97;40.45;;;;;;;;;;5035559;28;20361;-70
2024/03/11 05:55:32;;;;;;;90.30;40.83;;;;;;;;;;5026344;28;20028;-70
2024/03/11 05:58:02;;;;;;;100.63;44.05;;;;;;;;;;5026524;28;20029;-71
2024/03/11 06:00:31;;;;;;;103.25;41.92;;;;;;;;;;5027241;28;20033;-70
2024/03/11 06:02:56;;;;;;;98.55;42.13;;;;;;;;;;5032384;28;20025;-70
2024/03/11 06:05:21;;;;;;;99.63;42.27;;;;;;;;;;5021688;28;20061;-70
2024/03/11 06:07:46;;;;;;;108.75;47.50;;;;;;;;;;5025440;28;20834;-70
2024/03/11 06:10:12;;;;;;;101.03;43.60;;;;;;;;;;5022789;28;20040;-70
2024/03/11 06:12:37;;;;;;;98.20;43.10;;;;;;;;;;5018460;28;20260;-70
2024/03/11 06:15:02;;;;;;;121.13;49.30;;;;;;;;;;5023365;28;20041;-71
2024/03/11 06:17:29;;;;;;;111.90;47.67;;;;;;;;;;5028642;28;20330;-70
2024/03/11 06:19:54;;;;;;;111.22;46.28;;;;;;;;;;5024489;28;20024;-71
2024/03/11 06:22:19;;;;;;;114.50;48.15;;;;;;;;;;5026751;28;20021;-70
2024/03/11 06:24:45;;;;;;;124.03;50.07;;;;;;;;;;5026442;28;20029;-70
2024/03/11 06:27:11;;;;;;;124.68;50.00;;;;;;;;;;5025760;28;20926;-70
2024/03/11 06:29:36;;;;;;;118.93;46.88;;;;;;;;;;5028710;28;20018;-70
2024/03/11 06:32:05;;;;;;;126.20;49.97;;;;;;;;;;5028904;28;20024;-70
2024/03/11 06:34:30;;;;;;;133.05;59.70;;;;;;;;;;5025543;28;20033;-70
2024/03/11 06:36:55;;;;;;;124.60;50.40;;;;;;;;;;5027035;28;20032;-70
2024/03/11 06:39:21;;;;;;;113.67;48.20;;;;;;;;;;5029361;28;20419;-71
2024/03/11 06:41:46;;;;;;;124.95;50.90;;;;;;;;;;5030349;28;20372;-70
2024/03/11 06:44:11;;;;;;;129.32;50.30;;;;;;;;;;5032795;28;20575;-70
2024/03/11 06:46:36;;;;;;;116.43;47.80;;;;;;;;;;5023731;28;20431;-70
2024/03/11 06:49:02;;;;;;;109.47;48.60;;;;;;;;;;5028128;28;20021;-70
2024/03/11 06:51:27;;;;;;;122.10;50.38;;;;;;;;;;5030039;28;20100;-70
2024/03/11 06:53:52;;;;;;;119.00;47.20;;;;;;;;;;5027428;28;20100;-70
2024/03/11 06:56:18;;;;;;;115.60;48.42;;;;;;;;;;5028521;28;20481;-70
2024/03/11 06:58:43;;;;;;;115.05;48.03;;;;;;;;;;5026509;28;20057;-70
2024/03/11 07:01:11;;;;;;;127.68;50.58;;;;;;;;;;5022563;28;20062;-70
2024/03/11 07:03:37;;;;;;;117.13;48.60;;;;;;;;;;5020207;28;20021;-70
2024/03/11 07:06:02;;;;;;;115.60;50.40;;;;;;;;;;5023651;28;20435;-70
2024/03/11 07:08:28;;;;;;;125.78;53.22;;;;;;;;;;5027379;28;20101;-69
2024/03/11 07:10:54;;;;;;;122.20;51.22;;;;;;;;;;5037580;28;20047;-69
2024/03/11 07:13:19;;;;;;;117.68;51.20;;;;;;;;;;5028967;28;20052;-69
2024/03/11 07:15:44;;;;;;;112.32;47.92;;;;;;;;;;5029128;28;20030;-69
2024/03/11 07:18:10;;;;;;;109.88;48.40;;;;;;;;;;5032497;28;20375;-69
2024/03/11 07:20:36;;;;;;;120.47;48.67;;;;;;;;;;5030205;28;20412;-69
2024/03/11 07:23:02;;;;;;;110.15;47.40;;;;;;;;;;5029735;28;20029;-69
2024/03/11 07:25:28;;;;;;;112.45;50.03;;;;;;;;;;5029135;28;20121;-69
2024/03/11 07:27:53;;;;;;;122.68;51.08;;;;;;;;;;5026368;28;20527;-69
2024/03/11 07:30:22;;;;;;;115.50;47.67;;;;;;;;;;5032916;28;20465;-69
2024/03/11 07:33:01;;;;;;;110.32;50.10;;;;;;;;;;5028865;28;20267;-69
2024/03/11 07:35:27;;;;;;;120.43;51.60;;;;;;;;;;5031194;28;20483;-69
2024/03/11 07:37:52;;;;;;;103.13;45.38;;;;;;;;;;5033489;28;20022;-69
2024/03/11 07:40:17;;;;;;;114.47;46.60;;;;;;;;;;5025524;28;20105;-69
2024/03/11 07:42:43;;;;;;;105.95;46.75;;;;;;;;;;5034541;28;20374;-69
2024/03/11 07:45:11;;;;;;;93.80;37.40;;;;;;;;;;5034425;28;20017;-69
2024/03/11 07:47:37;;;;;;;54.90;22.40;;;;;;;;;;5032046;28;20502;-69
2024/03/11 07:50:03;;;;;;;101.32;45.17;;;;;;;;;;5026984;28;20017;-69
2024/03/11 07:52:29;;;;;;;108.35;43.97;;;;;;;;;;5030733;28;20607;-69
2024/03/11 07:54:54;;;;;;;87.75;32.75;;;;;;;;;;5024260;28;20103;-69
2024/03/11 07:57:20;;;;;;;80.70;33.80;;;;;;;;;;5024616;28;20503;-69
2024/03/11 07:59:45;;;;;;;85.45;37.38;;;;;;;;;;5027560;28;20088;-69
2024/03/11 08:02:10;;;;;;;85.30;34.42;;;;;;;;;;5024233;28;20075;-70
2024/03/11 08:04:36;;;;;;;77.47;34.35;;;;;;;;;;5030922;28;20068;-70
2024/03/11 08:07:03;;;;;;;79.68;34.25;;;;;;;;;;5030916;28;20021;-69
2024/03/11 08:09:28;;;;;;;34.50;14.18;;;;;;;;;;5033130;28;20022;-69
2024/03/11 08:11:54;;;;;;;58.78;23.17;;;;;;;;;;5025678;28;20397;-69
2024/03/11 08:14:20;;;;;;;29.58;12.75;;;;;;;;;;5027957;28;20087;-69
2024/03/11 08:16:45;;;;;;;35.63;15.93;;;;;;;;;;5026261;28;20072;-69
2024/03/11 08:19:12;;;;;;;30.10;15.03;;;;;;;;;;5026903;28;20021;-69
2024/03/11 08:21:40;;;;;;;15.02;5.40;;;;;;;;;;5027429;28;20267;-69
2024/03/11 08:24:06;;;;;;;20.05;7.50;;;;;;;;;;5027934;28;20495;-69
2024/03/11 08:26:31;;;;;;;14.55;5.78;;;;;;;;;;5033668;28;20024;-69
2024/03/11 08:28:57;;;;;;;9.95;4.85;;;;;;;;;;5032280;28;20021;-69
2024/03/11 08:31:23;;;;;;;8.63;4.00;;;;;;;;;;5030057;28;20025;-69
2024/03/11 08:33:48;;;;;;;4.03;2.38;;;;;;;;;;5033475;28;20082;-69
2024/03/11 08:36:14;;;;;;;9.43;3.35;;;;;;;;;;5030372;28;20417;-69
2024/03/11 08:38:39;;;;;;;6.13;1.45;;;;;;;;;;5032122;28;20050;-69
2024/03/11 08:41:05;;;;;;;5.53;2.15;;;;;;;;;;5032622;28;20079;-69
2024/03/11 08:43:30;;;;;;;3.03;1.42;;;;;;;;;;5029534;28;20512;-69
2024/03/11 08:45:57;;;;;;;4.13;1.83;;;;;;;;;;5027304;28;20454;-69
2024/03/11 08:48:22;;;;;;;3.70;2.20;;;;;;;;;;5025752;28;20024;-69
2024/03/11 08:50:48;;;;;;;3.97;1.83;;;;;;;;;;5027978;28;20017;-69
2024/03/11 08:53:15;;;;;;;5.93;1.77;;;;;;;;;;5032817;28;20338;-69
2024/03/11 08:55:40;;;;;;;6.25;2.35;;;;;;;;;;5033942;28;20029;-69
2024/03/11 08:58:05;;;;;;;5.50;2.47;;;;;;;;;;5028781;28;20032;-69
2024/03/11 09:00:36;;;;;;;8.27;2.85;;;;;;;;;;5027860;28;20025;-69
2024/03/11 09:03:03;;;;;;;5.78;2.90;;;;;;;;;;5028183;28;20484;-69
2024/03/11 09:05:28;;;;;;;5.97;2.90;;;;;;;;;;5018299;28;20112;-69
2024/03/11 09:07:53;;;;;;;3.65;1.05;;;;;;;;;;5026506;28;20156;-69
2024/03/11 09:10:18;;;;;;;5.70;2.88;;;;;;;;;;5028142;28;20021;-69
2024/03/11 09:12:44;;;;;;;4.68;2.40;;;;;;;;;;5024246;28;20022;-69
2024/03/11 09:15:15;;;;;;;6.35;2.45;;;;;;;;;;5021110;28;20017;-69
2024/03/11 09:17:42;;;;;;;4.38;1.67;;;;;;;;;;5025541;28;20027;-69
2024/03/11 09:20:08;;;;;;;3.75;1.38;;;;;;;;;;5026706;28;20148;-69
2024/03/11 09:22:34;;;;;;;1.23;0.57;;;;;;;;;;5026826;28;20466;-69
2024/03/11 09:25:00;;;;;;;6.35;1.42;;;;;;;;;;5026116;28;20117;-69
2024/03/11 09:27:26;;;;;;;4.28;2.03;;;;;;;;;;5022691;28;20100;-69
2024/03/11 09:29:51;;;;;;;5.03;1.85;;;;;;;;;;5031629;28;20054;-69
2024/03/11 09:32:16;;;;;;;6.93;2.33;;;;;;;;;;5033825;28;20021;-69
2024/03/11 09:34:42;;;;;;;2.60;1.63;;;;;;;;;;5028206;28;20049;-69
2024/03/11 09:37:08;;;;;;;5.40;2.60;;;;;;;;;;5025522;28;20287;-69
2024/03/11 09:39:34;;;;;;;3.80;2.33;;;;;;;;;;5024556;28;20112;-69
2024/03/11 09:42:05;;;;;;;9.50;3.22;;;;;;;;;;5033298;28;20148;-69
2024/03/11 09:44:30;;;;;;;4.90;2.50;;;;;;;;;;5029661;28;20122;-69
2024/03/11 09:47:00;;;;;;;5.43;1.77;;;;;;;;;;5021925;28;20096;-69
2024/03/11 09:49:25;;;;;;;7.85;3.17;;;;;;;;;;5027014;28;20033;-69
2024/03/11 09:51:53;;;;;;;7.95;3.08;;;;;;;;;;5032614;28;20071;-69
2024/03/11 09:54:19;;;;;;;1.40;0.90;;;;;;;;;;5031032;28;20025;-69
2024/03/11 09:56:48;;;;;;;2.25;1.08;;;;;;;;;;5019984;28;20514;-69
2024/03/11 09:59:18;;;;;;;4.97;2.10;;;;;;;;;;5032737;28;20029;-69
2024/03/11 10:01:44;;;;;;;3.58;1.48;;;;;;;;;;5025738;28;20029;-69
2024/03/11 10:04:09;;;;;;;2.05;1.15;;;;;;;;;;5022986;28;20528;-69
2024/03/11 10:06:39;;;;;;;1.45;0.93;;;;;;;;;;5025450;28;20025;-69
2024/03/11 10:09:04;;;;;;;3.95;1.40;;;;;;;;;;5025780;28;20040;-69
2024/03/11 10:11:29;;;;;;;3.33;1.10;;;;;;;;;;5026320;28;20428;-68
2024/03/11 10:13:57;;;;;;;3.97;1.75;;;;;;;;;;5026342;28;20373;-68
2024/03/11 10:16:24;;;;;;;2.22;1.45;;;;;;;;;;5028268;28;20078;-68
2024/03/11 10:19:11;;;;;;;12.07;1.85;;;;;;;;;;5029114;28;20018;-69
2024/03/11 10:21:36;;;;;;;2.78;1.67;;;;;;;;;;5027902;28;20022;-69
2024/03/11 10:24:01;;;;;;;2.67;1.33;;;;;;;;;;5026001;28;20021;-69
2024/03/11 10:26:30;;;;;;;4.88;1.10;;;;;;;;;;5025255;28;20026;-68
2024/03/11 10:28:56;;;;;;;4.60;1.50;;;;;;;;;;5026161;28;20563;-68
2024/03/11 10:31:27;;;;;;;5.95;1.90;;;;;;;;;;5027164;28;20048;-68
2024/03/11 10:34:09;;;;;;;4.95;1.58;;;;;;;;;;5024842;28;20095;-69
2024/03/11 10:36:35;;;;;;;0.98;0.50;;;;;;;;;;5023378;28;20043;-69
2024/03/11 10:39:09;;;;;;;3.20;1.10;;;;;;;;;;5024359;28;20097;-69
2024/03/11 10:41:35;;;;;;;2.08;0.60;;;;;;;;;;5020743;28;20535;-69
2024/03/11 10:44:11;;;;;;;0.80;0.68;;;;;;;;;;5024629;28;20026;-69
2024/03/11 10:46:39;;;;;;;3.10;0.68;;;;;;;;;;5022307;28;20022;-69
2024/03/11 10:49:04;;;;;;;3.20;0.68;;;;;;;;;;5024883;28;20026;-69
2024/03/11 10:51:30;;;;;;;2.85;0.70;;;;;;;;;;5032373;28;20022;-69
2024/03/11 10:53:56;;;;;;;7.20;1.90;;;;;;;;;;5025701;28;20120;-69
2024/03/11 10:56:24;;;;;;;3.65;1.35;;;;;;;;;;5022793;28;20033;-69
2024/03/11 10:58:54;;;;;;;1.73;1.00;;;;;;;;;;5024416;28;20101;-69
2024/03/11 11:01:30;;;;;;;1.13;0.65;;;;;;;;;;5022839;28;20021;-69
2024/03/11 11:03:55;;;;;;;1.92;0.98;;;;;;;;;;5028725;28;20027;-69
2024/03/11 11:06:27;;;;;;;2.72;0.73;;;;;;;;;;5025011;28;20014;-69
2024/03/11 11:08:53;;;;;;;1.10;0.82;;;;;;;;;;5023124;28;20022;-69
2024/03/11 11:11:19;;;;;;;1.67;0.88;;;;;;;;;;5029948;28;20434;-69
2024/03/11 11:13:50;;;;;;;2.53;1.27;;;;;;;;;;5032510;28;20033;-69
2024/03/11 11:16:18;;;;;;;1.08;0.70;;;;;;;;;;5029311;28;20052;-69
2024/03/11 11:18:45;;;;;;;2.05;0.50;;;;;;;;;;5027561;28;20161;-69
2024/03/11 11:21:11;;;;;;;2.13;1.45;;;;;;;;;;5022809;28;20690;-69
2024/03/11 11:23:37;;;;;;;4.22;0.77;;;;;;;;;;5026151;28;20061;-69
2024/03/11 11:26:03;;;;;;;1.00;0.55;;;;;;;;;;5031269;28;20021;-69
2024/03/11 11:28:28;;;;;;;1.45;0.82;;;;;;;;;;5029468;28;20060;-69
2024/03/11 11:31:11;;;;;;;0.95;0.85;;;;;;;;;;5029971;28;20068;-69
2024/03/11 11:33:53;;;;;;;3.95;0.90;;;;;;;;;;5029930;28;20257;-69
2024/03/11 11:36:46;;;;;;;0.40;0.38;;;;;;;;;;5026494;28;20021;-69
2024/03/11 11:39:14;;;;;;;2.97;1.33;;;;;;;;;;5026533;28;20357;-69
2024/03/11 11:41:43;;;;;;;1.45;0.90;;;;;;;;;;5027877;28;20480;-69
2024/03/11 11:44:09;;;;;;;6.32;1.55;;;;;;;;;;5027162;28;20581;-69
2024/03/11 11:46:41;;;;;;;1.77;0.85;;;;;;;;;;5024079;28;20034;-69
2024/03/11 11:49:19;;;;;;;2.45;1.10;;;;;;;;;;5026560;28;20032;-69
2024/03/11 11:51:45;;;;;;;1.67;0.75;;;;;;;;;;5029697;28;20033;-69
2024/03/11 11:54:17;;;;;;;2.83;0.90;;;;;;;;;;5027192;28;20025;-69
2024/03/11 11:56:43;;;;;;;4.55;1.20;;;;;;;;;;5028301;28;20172;-69
2024/03/11 11:59:08;;;;;;;1.93;0.90;;;;;;;;;;5027188;28;20670;-69
2024/03/11 12:01:45;;;;;;;1.80;1.15;;;;;;;;;;5026492;28;20275;-69
2024/03/11 12:04:10;;;;;;;2.72;1.45;;;;;;;;;;5029828;28;20021;-69
2024/03/11 12:06:36;;;;;;;3.87;2.13;;;;;;;;;;5034058;28;20024;-69
2024/03/11 12:09:16;;;;;;;2.88;1.30;;;;;;;;;;5031249;28;20263;-69
2024/03/11 12:11:45;;;;;;;1.42;0.50;;;;;;;;;;5032697;28;20021;-69
2024/03/11 12:14:11;;;;;;;2.30;1.13;;;;;;;;;;5030909;28;20014;-69
2024/03/11 12:16:38;;;;;;;2.55;1.38;;;;;;;;;;5031128;28;20039;-69
2024/03/11 12:19:05;;;;;;;1.67;0.85;;;;;;;;;;5031881;28;20029;-69
2024/03/11 12:21:31;;;;;;;2.13;0.90;;;;;;;;;;5023561;28;20053;-69
2024/03/11 12:23:57;;;;;;;1.25;0.43;;;;;;;;;;5025858;28;20075;-69
2024/03/11 12:26:23;;;;;;;0.63;0.40;;;;;;;;;;5032444;28;20455;-69
2024/03/11 12:29:04;;;;;;;4.53;1.23;;;;;;;;;;5021918;28;20025;-69
2024/03/11 12:31:32;;;;;;;1.27;0.98;;;;;;;;;;5027943;28;20508;-69
2024/03/11 12:34:00;;;;;;;3.38;1.10;;;;;;;;;;5024310;28;20036;-69
2024/03/11 12:36:26;;;;;;;1.13;1.02;;;;;;;;;;5030416;28;20022;-69
2024/03/11 12:38:51;;;;;;;1.23;0.60;;;;;;;;;;5030785;28;20075;-69
2024/03/11 12:41:35;;;;;;;4.03;1.60;;;;;;;;;;5030805;28;20029;-69
2024/03/11 12:44:08;;;;;;;2.13;1.00;;;;;;;;;;5027501;28;20135;-69
2024/03/11 12:46:34;;;;;;;2.97;0.98;;;;;;;;;;5026562;28;20030;-69
2024/03/11 12:48:59;;;;;;;1.75;0.98;;;;;;;;;;5023583;28;20024;-68
2024/03/11 12:51:25;;;;;;;5.38;1.70;;;;;;;;;;5025288;28;20029;-68
2024/03/11 12:53:50;;;;;;;1.33;0.85;;;;;;;;;;5026126;28;20105;-69
2024/03/11 12:56:16;;;;;;;4.53;1.58;;;;;;;;;;5024829;28;20492;-69
2024/03/11 12:58:42;;;;;;;4.75;1.08;;;;;;;;;;5029772;28;20421;-69
2024/03/11 13:01:16;;;;;;;1.42;0.88;;;;;;;;;;5020122;28;20071;-69
2024/03/11 13:03:41;;;;;;;2.92;1.55;;;;;;;;;;5032865;28;20022;-69
2024/03/11 13:06:09;;;;;;;4.53;0.95;;;;;;;;;;5027107;28;20017;-69
2024/03/11 13:08:38;;;;;;;5.75;1.27;;;;;;;;;;5027656;28;20037;-69
2024/03/11 13:11:08;;;;;;;3.47;1.58;;;;;;;;;;5025557;28;20575;-69
2024/03/11 13:13:35;;;;;;;2.42;1.13;;;;;;;;;;5021575;28;20025;-69
2024/03/11 13:16:01;;;;;;;2.00;1.17;;;;;;;;;;5029485;28;20187;-69
2024/03/11 13:18:29;;;;;;;1.65;0.50;;;;;;;;;;5030020;28;20273;-69
2024/03/11 13:20:55;;;;;;;2.92;1.00;;;;;;;;;;5026004;28;20453;-69
2024/03/11 13:23:21;;;;;;;2.53;1.33;;;;;;;;;;5024158;28;20032;-69
2024/03/11 13:25:48;;;;;;;1.52;0.88;;;;;;;;;;5028585;28;20021;-69
2024/03/11 13:28:14;;;;;;;1.67;1.05;;;;;;;;;;5026379;28;20021;-69
2024/03/11 13:30:43;;;;;;;3.20;0.90;;;;;;;;;;5030577;28;20086;-69
2024/03/11 13:33:08;;;;;;;1.50;0.47;;;;;;;;;;5025627;28;20021;-69
2024/03/11 13:35:33;;;;;;;2.25;0.68;;;;;;;;;;5023961;28;20033;-69
2024/03/11 13:37:58;;;;;;;1.65;0.73;;;;;;;;;;5029155;28;20059;-69
2024/03/11 13:40:23;;;;;;;3.90;1.50;;;;;;;;;;5026200;28;20037;-69
2024/03/11 13:42:49;;;;;;;3.13;1.60;;;;;;;;;;5030925;28;20265;-69
2024/03/11 13:45:14;;;;;;;2.30;0.90;;;;;;;;;;5024815;28;20287;-69
2024/03/11 13:47:39;;;;;;;2.75;1.30;;;;;;;;;;5023847;28;20025;-69
2024/03/11 13:50:14;;;;;;;0.87;0.53;;;;;;;;;;5030065;28;20016;-69
2024/03/11 13:52:41;;;;;;;3.70;1.38;;;;;;;;;;5025236;28;20596;-69
2024/03/11 13:55:07;;;;;;;1.38;1.27;;;;;;;;;;5028313;28;20021;-69
2024/03/11 13:57:32;;;;;;;2.00;0.90;;;;;;;;;;5027686;28;20140;-69
2024/03/11 13:59:58;;;;;;;3.67;1.20;;;;;;;;;;5026332;28;20489;-69
2024/03/11 14:02:24;;;;;;;0.50;0.32;;;;;;;;;;5028687;28;20264;-69
2024/03/11 14:04:49;;;;;;;0.45;0.45;;;;;;;;;;5028279;28;20052;-69
2024/03/11 14:07:14;;;;;;;0.97;0.30;;;;;;;;;;5028172;28;20029;-69
2024/03/11 14:09:39;;;;;;;1.80;0.57;;;;;;;;;;5028682;28;20331;-69
2024/03/11 14:12:07;;;;;;;1.15;0.50;;;;;;;;;;5023197;28;20013;-69
2024/03/11 14:14:34;;;;;;;1.33;0.95;;;;;;;;;;5024730;28;20021;-69
2024/03/11 14:16:59;;;;;;;3.80;1.10;;;;;;;;;;5021823;28;20469;-69
2024/03/11 14:19:27;;;;;;;1.55;0.88;;;;;;;;;;5028885;28;20022;-69
2024/03/11 14:21:52;;;;;;;1.45;0.90;;;;;;;;;;5027089;28;20009;-69